Time;durP1;ratioP1;P1;durP2;ratioP2;P2;SDS_P1;SDS_P2;PMS_P1;PMS_P2;Temp;Humidity;BMP_temperature;BMP_pressure;BME280_temperature;BME280_humidity;BME280_pressure;Samples;Min_cycle;Max_cycle;Signal;HPM_P1;HPM_P2
2021/06/07 00:01:22;;;;;;;7.50;3.00;;;14.90;90.20;;;;;;5176084;27;20042;-85
2021/06/07 00:03:49;;;;;;;5.95;3.17;;;14.80;90.20;;;;;;5177316;27;20489;-85
2021/06/07 00:06:16;;;;;;;5.90;2.97;;;14.80;89.80;;;;;;5176992;27;20122;-85
2021/06/07 00:08:42;;;;;;;5.82;3.08;;;14.80;89.70;;;;;;5176500;27;20046;-85
2021/06/07 00:11:09;;;;;;;5.15;3.05;;;14.80;90.00;;;;;;5177133;27;20053;-84
2021/06/07 00:13:35;;;;;;;5.43;3.03;;;14.80;90.00;;;;;;5176562;27;20049;-84
2021/06/07 00:16:02;;;;;;;5.05;3.15;;;14.70;89.60;;;;;;5177025;27;20053;-85
2021/06/07 00:18:27;;;;;;;4.97;3.00;;;14.70;90.00;;;;;;5176476;27;20050;-84
2021/06/07 00:21:04;;;;;;;4.32;2.90;;;14.70;89.60;;;;;;5162999;27;20060;-84
2021/06/07 00:23:30;;;;;;;4.63;3.00;;;14.70;89.80;;;;;;5155586;27;20078;-84
2021/06/07 00:25:56;;;;;;;6.03;2.90;;;14.70;90.00;;;;;;5155664;27;20065;-85
2021/06/07 00:28:22;;;;;;;4.80;2.63;;;14.70;90.00;;;;;;5155028;27;20051;-83
2021/06/07 00:31:09;;;;;;;5.05;2.90;;;14.70;90.00;;;;;;5152609;27;20099;-84
2021/06/07 00:33:36;;;;;;;5.70;3.30;;;14.60;90.00;;;;;;5176597;27;20057;-84
2021/06/07 00:36:04;;;;;;;5.25;3.20;;;14.60;90.00;;;;;;5175227;27;20404;-85
2021/06/07 00:38:29;;;;;;;5.70;3.20;;;14.60;90.20;;;;;;5156979;27;20046;-85
2021/06/07 00:40:58;;;;;;;5.10;3.00;;;14.60;90.30;;;;;;5155475;27;20043;-84
2021/06/07 00:43:23;;;;;;;4.72;3.25;;;14.60;90.30;;;;;;5154856;27;20501;-84
2021/06/07 00:45:49;;;;;;;6.70;3.30;;;14.60;90.20;;;;;;5155579;27;20047;-84
2021/06/07 00:48:17;;;;;;;6.15;2.90;;;14.50;90.30;;;;;;5155573;27;20043;-84
2021/06/07 00:50:49;;;;;;;5.90;3.03;;;14.50;90.30;;;;;;5155079;27;20469;-83
2021/06/07 00:53:17;;;;;;;5.97;2.92;;;14.50;90.30;;;;;;5159561;27;20125;-83
2021/06/07 00:55:46;;;;;;;5.45;3.40;;;14.50;90.30;;;;;;5165978;27;20046;-84
2021/06/07 00:58:12;;;;;;;5.30;3.28;;;14.50;90.40;;;;;;5159910;27;20047;-83
2021/06/07 01:00:39;;;;;;;5.63;3.42;;;14.40;90.50;;;;;;5169287;27;20133;-84
2021/06/07 01:03:07;;;;;;;6.40;3.58;;;14.40;90.50;;;;;;5174700;27;20047;-83
2021/06/07 01:05:34;;;;;;;5.53;3.60;;;14.40;90.40;;;;;;5175801;27;20508;-83
2021/06/07 01:07:59;;;;;;;6.50;3.53;;;14.40;90.40;;;;;;5175194;27;20069;-83
2021/06/07 01:10:26;;;;;;;6.47;3.75;;;14.30;90.60;;;;;;5174601;27;20073;-82
2021/06/07 01:12:52;;;;;;;5.38;3.33;;;14.30;90.40;;;;;;5175082;27;20069;-83
2021/06/07 01:15:18;;;;;;;6.43;3.55;;;14.30;90.30;;;;;;5174923;27;20042;-83
2021/06/07 01:17:44;;;;;;;5.50;3.47;;;14.30;90.40;;;;;;5174269;27;20507;-83
2021/06/07 01:20:13;;;;;;;5.82;3.40;;;14.20;90.40;;;;;;5161728;27;20046;-82
2021/06/07 01:22:39;;;;;;;5.85;3.92;;;14.20;90.40;;;;;;5154307;27;20042;-83
2021/06/07 01:25:10;;;;;;;5.03;3.80;;;14.20;90.40;;;;;;5153107;27;20058;-82
2021/06/07 01:27:36;;;;;;;6.15;3.85;;;14.20;90.40;;;;;;5153655;27;20043;-83
2021/06/07 01:30:10;;;;;;;6.20;3.72;;;14.10;90.40;;;;;;5155338;27;20104;-82
2021/06/07 01:32:35;;;;;;;5.38;3.55;;;14.10;90.40;;;;;;5174249;27;20042;-82
2021/06/07 01:35:03;;;;;;;5.88;3.83;;;14.10;90.40;;;;;;5174639;27;20454;-82
2021/06/07 01:37:29;;;;;;;6.10;3.80;;;14.10;90.50;;;;;;5174847;27;20075;-82
2021/06/07 01:39:55;;;;;;;5.85;4.05;;;14.00;90.50;;;;;;5160463;27;20096;-83
2021/06/07 01:42:21;;;;;;;6.93;3.70;;;14.00;90.60;;;;;;5153878;27;20054;-83
2021/06/07 01:44:47;;;;;;;6.97;4.03;;;14.00;90.60;;;;;;5153328;27;20134;-82
2021/06/07 01:47:12;;;;;;;8.13;4.35;;;14.00;90.60;;;;;;5153480;27;20047;-82
2021/06/07 01:49:38;;;;;;;6.20;3.90;;;14.00;91.10;;;;;;5153798;27;20052;-83
2021/06/07 01:52:04;;;;;;;7.30;4.30;;;14.00;90.70;;;;;;5152607;27;20039;-82
2021/06/07 01:54:30;;;;;;;6.85;4.45;;;13.90;90.60;;;;;;5153544;27;20050;-82
2021/06/07 01:56:55;;;;;;;5.65;3.90;;;13.90;90.70;;;;;;5153163;27;20047;-82
2021/06/07 01:59:21;;;;;;;6.40;4.15;;;13.90;90.70;;;;;;5153865;27;20051;-83
2021/06/07 02:01:47;;;;;;;7.45;4.30;;;13.80;90.70;;;;;;5153544;27;20062;-82
2021/06/07 02:04:12;;;;;;;6.13;3.95;;;13.80;90.70;;;;;;5153169;27;20083;-82
2021/06/07 02:06:39;;;;;;;6.40;4.45;;;13.80;90.70;;;;;;5152601;27;20043;-82
2021/06/07 02:09:05;;;;;;;7.03;4.25;;;13.80;90.70;;;;;;5153458;27;20078;-82
2021/06/07 02:11:31;;;;;;;5.95;4.07;;;13.80;90.70;;;;;;5154182;27;20510;-83
2021/06/07 02:14:03;;;;;;;5.93;4.00;;;13.80;90.80;;;;;;5153424;27;20091;-82
2021/06/07 02:16:33;;;;;;;6.57;4.10;;;13.70;90.70;;;;;;5154504;27;20107;-83
2021/06/07 02:18:59;;;;;;;5.30;3.80;;;13.70;90.80;;;;;;5162390;27;20042;-83
2021/06/07 02:21:26;;;;;;;6.10;4.38;;;13.70;90.60;;;;;;5174386;27;20053;-82
2021/06/07 02:23:53;;;;;;;6.60;4.40;;;13.70;90.60;;;;;;5174501;27;20045;-83
2021/06/07 02:26:21;;;;;;;6.20;4.28;;;13.70;90.60;;;;;;5175080;27;20046;-83
2021/06/07 02:28:49;;;;;;;6.28;4.22;;;13.70;90.70;;;;;;5174309;27;20396;-83
2021/06/07 02:31:16;;;;;;;5.38;4.07;;;13.70;91.00;;;;;;5161299;27;20039;-82
2021/06/07 02:33:42;;;;;;;6.57;4.25;;;13.60;90.80;;;;;;5154012;27;20493;-83
2021/06/07 02:36:08;;;;;;;5.63;4.18;;;13.60;90.70;;;;;;5153370;27;20051;-83
2021/06/07 02:38:34;;;;;;;6.07;4.22;;;13.60;90.70;;;;;;5168582;27;20378;-82
2021/06/07 02:41:00;;;;;;;6.32;4.32;;;13.60;90.70;;;;;;5174709;27;20042;-84
2021/06/07 02:43:26;;;;;;;5.72;4.00;;;13.60;90.60;;;;;;5178687;27;20053;-83
2021/06/07 02:45:51;;;;;;;6.30;4.53;;;13.60;90.80;;;;;;5178971;27;20046;-84
2021/06/07 02:48:17;;;;;;;6.82;4.45;;;13.60;90.70;;;;;;5178255;27;20065;-83
2021/06/07 02:50:45;;;;;;;7.97;4.40;;;13.50;90.70;;;;;;5179069;27;20042;-83
2021/06/07 02:53:12;;;;;;;5.60;3.92;;;13.50;90.80;;;;;;5178414;27;20417;-83
2021/06/07 02:55:43;;;;;;;6.80;4.78;;;13.50;90.80;;;;;;5178447;27;20729;-83
2021/06/07 02:58:08;;;;;;;6.45;4.10;;;13.50;90.80;;;;;;5159770;27;20485;-83
2021/06/07 03:00:45;;;;;;;6.65;4.50;;;13.40;90.70;;;;;;5171383;27;20050;-83
2021/06/07 03:03:12;;;;;;;6.68;4.25;;;13.40;90.80;;;;;;5156732;27;20208;-84
2021/06/07 03:05:39;;;;;;;5.57;4.00;;;13.40;91.00;;;;;;5157699;27;20046;-83
2021/06/07 03:08:07;;;;;;;6.65;4.18;;;13.40;91.00;;;;;;5157634;27;20047;-83
2021/06/07 03:10:33;;;;;;;5.68;4.22;;;13.40;90.90;;;;;;5156951;27;20051;-83
2021/06/07 03:12:58;;;;;;;5.30;4.22;;;13.40;90.90;;;;;;5157473;27;20043;-83
2021/06/07 03:15:25;;;;;;;6.72;4.30;;;13.40;90.90;;;;;;5157684;27;20436;-83
2021/06/07 03:17:52;;;;;;;6.60;4.90;;;13.40;90.70;;;;;;5156714;27;20126;-84
2021/06/07 03:20:21;;;;;;;6.55;4.18;;;13.40;90.90;;;;;;5163069;27;20398;-83
2021/06/07 03:22:47;;;;;;;6.32;4.50;;;13.40;90.80;;;;;;5178507;27;20111;-84
2021/06/07 03:25:14;;;;;;;5.78;3.63;;;13.40;90.80;;;;;;5177140;27;20469;-83
2021/06/07 03:27:41;;;;;;;6.35;4.40;;;13.40;90.60;;;;;;5178093;27;20074;-83
2021/06/07 03:30:08;;;;;;;6.38;3.95;;;13.40;90.80;;;;;;5174658;27;20537;-83
2021/06/07 03:32:34;;;;;;;5.70;4.03;;;13.40;90.70;;;;;;5156556;27;20042;-83
2021/06/07 03:35:00;;;;;;;5.85;4.28;;;13.40;90.60;;;;;;5157076;27;20054;-84
2021/06/07 03:37:26;;;;;;;7.25;4.10;;;13.40;90.50;;;;;;5156527;27;20485;-84
2021/06/07 03:39:52;;;;;;;5.60;4.13;;;13.40;90.40;;;;;;5161235;27;20042;-83
2021/06/07 03:42:18;;;;;;;5.47;4.20;;;13.40;90.50;;;;;;5177984;27;20100;-83
2021/06/07 03:44:44;;;;;;;5.57;4.03;;;13.40;90.50;;;;;;5177155;27;20118;-83
2021/06/07 03:47:09;;;;;;;4.93;3.88;;;13.30;90.50;;;;;;5177584;27;20050;-83
2021/06/07 03:49:35;;;;;;;7.03;4.18;;;13.30;90.50;;;;;;5177941;27;20073;-84
2021/06/07 03:52:01;;;;;;;6.10;4.13;;;13.30;90.60;;;;;;5176699;27;20042;-83
2021/06/07 03:54:26;;;;;;;5.75;4.10;;;13.30;90.60;;;;;;5176497;27;20133;-83
2021/06/07 03:56:52;;;;;;;7.13;4.20;;;13.30;90.70;;;;;;5177354;27;20125;-83
2021/06/07 03:59:18;;;;;;;5.57;3.58;;;13.30;90.70;;;;;;5174577;27;20133;-84
2021/06/07 04:01:44;;;;;;;6.80;4.03;;;13.30;90.40;;;;;;5156531;27;20043;-83
2021/06/07 04:04:10;;;;;;;6.95;4.47;;;13.20;90.50;;;;;;5156471;27;20050;-83
2021/06/07 04:06:36;;;;;;;6.07;4.13;;;13.20;90.60;;;;;;5155902;27;20043;-84
2021/06/07 04:09:03;;;;;;;6.00;4.35;;;13.30;90.80;;;;;;5156319;27;20119;-84
2021/06/07 04:11:29;;;;;;;6.45;4.15;;;13.20;90.80;;;;;;5156478;27;20516;-83
2021/06/07 04:13:55;;;;;;;5.50;3.92;;;13.20;90.90;;;;;;5155237;27;20443;-83
2021/06/07 04:16:21;;;;;;;5.72;4.13;;;13.20;90.80;;;;;;5156238;27;20047;-83
2021/06/07 04:18:47;;;;;;;5.90;3.75;;;13.20;90.80;;;;;;5169742;27;20477;-83
2021/06/07 04:21:13;;;;;;;5.72;4.50;;;13.10;90.60;;;;;;5176248;27;20042;-83
2021/06/07 04:23:38;;;;;;;8.18;4.30;;;13.20;90.80;;;;;;5177207;27;20125;-83
2021/06/07 04:26:05;;;;;;;6.38;4.40;;;13.10;90.80;;;;;;5176709;27;20050;-83
2021/06/07 04:28:33;;;;;;;6.00;4.15;;;13.10;90.80;;;;;;5174422;27;20046;-83
2021/06/07 04:31:00;;;;;;;5.65;4.15;;;13.10;90.70;;;;;;5174695;27;20042;-83
2021/06/07 04:33:25;;;;;;;5.50;3.65;;;13.10;90.80;;;;;;5177180;27;20139;-83
2021/06/07 04:35:51;;;;;;;5.05;4.18;;;13.10;90.70;;;;;;5176294;27;20082;-83
2021/06/07 04:38:17;;;;;;;6.60;4.35;;;13.10;90.80;;;;;;5175997;27;20046;-83
2021/06/07 04:40:44;;;;;;;6.00;4.20;;;13.10;90.80;;;;;;5174338;27;20040;-84
2021/06/07 04:43:13;;;;;;;7.32;4.07;;;13.10;90.80;;;;;;5158605;27;20460;-83
2021/06/07 04:45:40;;;;;;;6.25;3.80;;;13.10;90.90;;;;;;5158230;27;20089;-83
2021/06/07 04:48:07;;;;;;;5.90;3.80;;;13.10;90.90;;;;;;5175122;27;20382;-83
2021/06/07 04:50:33;;;;;;;5.50;4.00;;;13.10;90.90;;;;;;5175046;27;20090;-83
2021/06/07 04:53:00;;;;;;;5.88;4.32;;;13.00;90.80;;;;;;5176116;27;20052;-83
2021/06/07 04:55:36;;;;;;;6.13;4.00;;;13.10;90.80;;;;;;5171561;27;20069;-84
2021/06/07 04:58:16;;;;;;;6.18;3.55;;;13.00;90.80;;;;;;5155211;27;20043;-83
2021/06/07 05:00:44;;;;;;;5.80;3.80;;;13.10;90.60;;;;;;5159934;27;20481;-83
2021/06/07 05:03:10;;;;;;;7.05;4.15;;;13.00;90.80;;;;;;5164121;27;20130;-83
2021/06/07 05:05:36;;;;;;;7.10;4.20;;;13.00;90.80;;;;;;5155356;27;20454;-84
2021/06/07 05:08:03;;;;;;;6.10;4.32;;;13.00;90.60;;;;;;5155020;27;20050;-86
2021/06/07 05:10:28;;;;;;;6.50;3.90;;;13.10;90.80;;;;;;5154870;27;20058;-86
2021/06/07 05:12:54;;;;;;;7.38;4.28;;;13.00;90.60;;;;;;5155276;27;20042;-83
2021/06/07 05:15:20;;;;;;;8.20;4.55;;;13.00;90.80;;;;;;5155343;27;20455;-86
2021/06/07 05:17:46;;;;;;;6.60;4.20;;;13.00;91.00;;;;;;5154354;27;20046;-84
2021/06/07 05:20:15;;;;;;;6.63;4.57;;;13.10;90.90;;;;;;5159936;27;20492;-84
2021/06/07 05:22:42;;;;;;;6.05;4.40;;;13.10;90.90;;;;;;5174793;27;20211;-84
2021/06/07 05:25:09;;;;;;;5.25;3.63;;;13.10;91.10;;;;;;5174236;27;20449;-84
2021/06/07 05:27:35;;;;;;;7.32;4.47;;;13.10;91.00;;;;;;5166835;27;20501;-84
2021/06/07 05:30:02;;;;;;;7.60;4.63;;;13.10;91.20;;;;;;5154357;27;20050;-84
2021/06/07 05:32:28;;;;;;;9.82;5.05;;;13.10;91.30;;;;;;5167947;27;20070;-83
2021/06/07 05:34:54;;;;;;;6.22;4.45;;;13.20;91.40;;;;;;5170997;27;20498;-85
2021/06/07 05:37:20;;;;;;;6.15;4.05;;;13.20;91.40;;;;;;5168986;27;20134;-86
2021/06/07 05:39:47;;;;;;;8.05;4.40;;;13.20;91.30;;;;;;5162344;27;20050;-86
2021/06/07 05:42:12;;;;;;;6.82;4.50;;;13.20;91.30;;;;;;5174053;27;20038;-84
2021/06/07 05:44:38;;;;;;;7.53;3.88;;;13.30;91.40;;;;;;5164402;27;20068;-83
2021/06/07 05:47:04;;;;;;;6.30;3.88;;;13.30;91.20;;;;;;5162380;27;20073;-89
2021/06/07 05:49:29;;;;;;;6.75;3.90;;;13.30;91.30;;;;;;5164795;27;20486;-87
2021/06/07 05:51:55;;;;;;;6.82;3.97;;;13.40;91.20;;;;;;5164741;27;20041;-87
2021/06/07 05:54:21;;;;;;;7.60;3.80;;;13.40;91.10;;;;;;5154228;27;20059;-87
2021/06/07 05:56:53;;;;;;;7.25;3.67;;;13.40;91.00;;;;;;5154258;27;20046;-86
2021/06/07 05:59:19;;;;;;;8.13;3.78;;;13.50;90.90;;;;;;5153884;27;20054;-81
2021/06/07 06:01:45;;;;;;;9.48;3.90;;;13.60;91.20;;;;;;5154763;27;20046;-82
2021/06/07 06:04:10;;;;;;;9.95;3.65;;;13.60;91.00;;;;;;5154365;27;20462;-83
2021/06/07 06:06:36;;;;;;;7.18;3.78;;;13.70;90.90;;;;;;5153934;27;20439;-82
2021/06/07 06:09:03;;;;;;;6.80;3.67;;;13.70;90.80;;;;;;5154226;27;20042;-84
2021/06/07 06:11:28;;;;;;;6.18;3.33;;;13.80;90.70;;;;;;5154729;27;20042;-84
2021/06/07 06:13:54;;;;;;;6.75;3.67;;;13.80;90.50;;;;;;5134513;27;20408;-83
2021/06/07 06:16:21;;;;;;;6.32;3.33;;;13.80;90.50;;;;;;5154097;27;20499;-85
2021/06/07 06:18:47;;;;;;;8.32;3.85;;;13.90;90.50;;;;;;5154529;27;20402;-82
2021/06/07 06:21:14;;;;;;;7.80;3.88;;;13.90;90.40;;;;;;5153307;27;20046;-83
2021/06/07 06:23:40;;;;;;;6.63;3.30;;;14.00;90.40;;;;;;5154268;27;20490;-85
2021/06/07 06:26:07;;;;;;;7.72;3.75;;;14.10;90.20;;;;;;5154268;27;20078;-86
2021/06/07 06:28:35;;;;;;;5.90;3.05;;;14.10;90.10;;;;;;5146460;27;20051;-84
2021/06/07 06:31:05;;;;;;;4.60;2.92;;;14.20;89.70;;;;;;5153415;27;20043;-84
2021/06/07 06:33:31;;;;;;;5.43;3.03;;;14.30;89.00;;;;;;5166521;27;20130;-84
2021/06/07 06:35:57;;;;;;;4.93;2.97;;;14.40;88.70;;;;;;5174468;27;20077;-84
2021/06/07 06:38:24;;;;;;;7.07;2.90;;;14.50;88.70;;;;;;5164925;27;20039;-84
2021/06/07 06:40:52;;;;;;;5.45;2.85;;;14.50;88.10;;;;;;5153607;27;20061;-84
2021/06/07 06:43:19;;;;;;;4.72;2.50;;;14.70;88.20;;;;;;5159907;27;20042;-84
2021/06/07 06:45:48;;;;;;;5.55;2.17;;;14.70;87.80;;;;;;5143729;27;20393;-83
2021/06/07 06:48:14;;;;;;;5.35;2.35;;;14.80;86.50;;;;;;5163680;27;20046;-82
2021/06/07 06:50:41;;;;;;;5.00;2.03;;;14.90;86.60;;;;;;5172622;27;20050;-84
2021/06/07 06:53:16;;;;;;;6.03;2.03;;;15.00;86.00;;;;;;5159556;27;20139;-83
2021/06/07 06:55:43;;;;;;;4.15;2.10;;;15.10;85.50;;;;;;5164259;27;20138;-83
2021/06/07 06:58:09;;;;;;;4.63;1.92;;;15.20;85.40;;;;;;5159750;27;20034;-83
2021/06/07 07:00:36;;;;;;;6.30;2.05;;;15.30;85.60;;;;;;5174410;27;20485;-82
2021/06/07 07:03:04;;;;;;;7.85;2.28;;;15.40;84.90;;;;;;5173657;27;20070;-83
2021/06/07 07:05:31;;;;;;;5.93;2.40;;;15.50;85.30;;;;;;5167400;27;20043;-83
2021/06/07 07:07:56;;;;;;;4.75;2.50;;;15.60;85.20;;;;;;5164292;27;20136;-82
2021/06/07 07:10:22;;;;;;;4.43;2.17;;;15.80;85.40;;;;;;5158504;27;20042;-84
2021/06/07 07:12:48;;;;;;;6.47;2.53;;;15.80;85.80;;;;;;5175014;27;20077;-84
2021/06/07 07:15:15;;;;;;;7.07;2.05;;;16.00;84.90;;;;;;5174438;27;20130;-84
2021/06/07 07:17:41;;;;;;;4.93;1.70;;;16.10;83.50;;;;;;5173903;27;20505;-84
2021/06/07 07:20:09;;;;;;;7.60;1.83;;;16.20;83.20;;;;;;5174105;27;20077;-84
2021/06/07 07:22:35;;;;;;;6.07;1.70;;;16.30;82.80;;;;;;5170846;27;20043;-83
2021/06/07 07:25:01;;;;;;;6.50;1.90;;;16.40;81.80;;;;;;5167712;27;20068;-84
2021/06/07 07:27:27;;;;;;;5.57;1.65;;;16.50;81.40;;;;;;5170568;27;20552;-83
2021/06/07 07:29:57;;;;;;;3.47;1.60;;;16.50;80.90;;;;;;5155582;27;20072;-83
2021/06/07 07:32:26;;;;;;;6.63;2.28;;;16.60;81.10;;;;;;5163736;27;20419;-83
2021/06/07 07:34:52;;;;;;;5.20;2.10;;;16.70;81.10;;;;;;5166944;27;20303;-83
2021/06/07 07:37:18;;;;;;;6.63;2.10;;;16.80;80.50;;;;;;5156234;27;20560;-83
2021/06/07 07:39:44;;;;;;;4.70;1.90;;;16.90;81.30;;;;;;5167346;27;20066;-83
2021/06/07 07:42:10;;;;;;;5.40;2.00;;;17.00;80.70;;;;;;5171196;27;20042;-83
2021/06/07 07:44:36;;;;;;;8.50;2.28;;;17.10;81.10;;;;;;5156048;27;20429;-84
2021/06/07 07:47:05;;;;;;;6.00;2.50;;;17.10;81.20;;;;;;5156887;27;20051;-83
2021/06/07 07:49:30;;;;;;;5.28;2.13;;;17.20;80.30;;;;;;5156995;27;20070;-83
2021/06/07 07:51:56;;;;;;;7.70;2.88;;;17.30;81.50;;;;;;5156399;27;20505;-83
2021/06/07 07:54:22;;;;;;;5.63;2.30;;;17.40;80.50;;;;;;5156796;27;20055;-84
2021/06/07 07:56:48;;;;;;;5.68;2.10;;;17.40;80.70;;;;;;5156764;27;20039;-83
2021/06/07 07:59:14;;;;;;;5.78;2.55;;;17.50;81.60;;;;;;5155774;27;20049;-83
2021/06/07 08:01:41;;;;;;;7.97;2.63;;;17.60;82.20;;;;;;5138520;27;20043;-83
2021/06/07 08:04:07;;;;;;;8.40;2.50;;;17.70;81.10;;;;;;5159273;27;20386;-83
2021/06/07 08:06:33;;;;;;;4.55;2.45;;;17.80;80.80;;;;;;5155911;27;20050;-83
2021/06/07 08:08:58;;;;;;;6.53;2.60;;;17.80;81.00;;;;;;5170603;27;20066;-83
2021/06/07 08:11:24;;;;;;;6.15;2.47;;;18.00;81.80;;;;;;5176025;27;20121;-82
2021/06/07 08:13:50;;;;;;;5.18;2.60;;;18.00;81.90;;;;;;5152488;27;20390;-83
2021/06/07 08:16:17;;;;;;;5.57;2.72;;;18.10;80.90;;;;;;5137808;27;20095;-83
2021/06/07 08:18:45;;;;;;;9.43;2.70;;;18.20;80.60;;;;;;5155843;27;20042;-83
2021/06/07 08:21:11;;;;;;;5.72;2.65;;;18.30;79.70;;;;;;5163487;27;20401;-83
2021/06/07 08:23:36;;;;;;;7.20;2.60;;;18.40;80.50;;;;;;5177041;27;20129;-82
2021/06/07 08:26:02;;;;;;;4.90;2.25;;;18.50;79.80;;;;;;5165714;27;20054;-84
2021/06/07 08:28:28;;;;;;;5.93;2.28;;;18.60;80.00;;;;;;5160823;27;20439;-83
2021/06/07 08:30:55;;;;;;;6.95;2.80;;;18.70;79.50;;;;;;5163286;27;20103;-83
2021/06/07 08:33:21;;;;;;;7.70;3.00;;;18.70;79.00;;;;;;5176386;27;20042;-83
2021/06/07 08:35:46;;;;;;;5.07;2.47;;;18.80;79.20;;;;;;5171913;27;20465;-83
2021/06/07 08:38:12;;;;;;;7.10;2.72;;;18.90;79.90;;;;;;5175683;27;20050;-83
2021/06/07 08:40:38;;;;;;;7.50;2.95;;;19.10;80.70;;;;;;5175504;27;20046;-84
2021/06/07 08:43:04;;;;;;;7.28;2.90;;;19.10;79.20;;;;;;5163897;27;20049;-83
2021/06/07 08:45:31;;;;;;;6.38;2.80;;;19.20;79.10;;;;;;5176154;27;20050;-83
2021/06/07 08:47:57;;;;;;;5.03;2.70;;;19.30;80.10;;;;;;5168260;27;20125;-83
2021/06/07 08:50:28;;;;;;;4.95;2.67;;;19.30;80.50;;;;;;5170051;27;20085;-84
2021/06/07 08:52:55;;;;;;;6.00;2.72;;;19.50;80.80;;;;;;5150950;27;20516;-83
2021/06/07 08:55:23;;;;;;;5.32;2.80;;;19.60;81.00;;;;;;5158102;27;20050;-82
2021/06/07 08:57:51;;;;;;;5.72;2.80;;;19.70;80.70;;;;;;5176077;27;20050;-83
2021/06/07 09:00:21;;;;;;;5.85;3.00;;;19.80;79.50;;;;;;5172055;27;20434;-82
2021/06/07 09:02:47;;;;;;;7.07;2.70;;;19.90;79.20;;;;;;5160186;27;20035;-82
2021/06/07 09:05:14;;;;;;;6.05;2.75;;;19.90;77.70;;;;;;5172947;27;20476;-83
2021/06/07 09:08:00;;;;;;;7.05;2.67;;;20.10;77.40;;;;;;5168474;27;20042;-83
2021/06/07 09:10:28;;;;;;;6.85;2.67;;;20.10;78.80;;;;;;5166854;27;20077;-84
2021/06/07 09:12:58;;;;;;;4.22;2.40;;;20.20;79.40;;;;;;5149213;27;20070;-84
2021/06/07 09:15:30;;;;;;;5.70;2.77;;;20.30;79.60;;;;;;5155847;27;20130;-84
2021/06/07 09:17:56;;;;;;;6.30;2.88;;;20.40;79.00;;;;;;5151473;27;20307;-84
2021/06/07 09:20:23;;;;;;;5.65;2.72;;;20.50;77.40;;;;;;5155133;27;20406;-84
2021/06/07 09:22:54;;;;;;;5.88;2.78;;;20.50;74.10;;;;;;5151170;27;20043;-84
2021/06/07 09:25:26;;;;;;;5.75;2.95;;;20.50;75.00;;;;;;5141170;27;20406;-84
2021/06/07 09:28:13;;;;;;;7.75;2.92;;;20.50;76.40;;;;;;5160135;27;20049;-84
2021/06/07 09:30:49;;;;;;;5.00;2.42;;;20.60;75.50;;;;;;5161517;27;20630;-84
2021/06/07 09:33:40;;;;;;;5.40;2.78;;;20.70;77.40;;;;;;5156478;27;20080;-84
2021/06/07 09:36:13;;;;;;;5.93;2.58;;;20.80;77.00;;;;;;5154112;27;20066;-84
2021/06/07 09:38:59;;;;;;;5.78;2.42;;;20.80;74.80;;;;;;5146455;27;20046;-84
2021/06/07 09:41:27;;;;;;;5.55;2.65;;;20.90;70.50;;;;;;5167150;27;20046;-85
2021/06/07 09:44:02;;;;;;;6.80;2.80;;;20.90;72.10;;;;;;5159318;27;20557;-86
2021/06/07 09:46:31;;;;;;;6.28;2.53;;;20.90;72.70;;;;;;5147411;27;20130;-85
2021/06/07 09:49:16;;;;;;;5.75;2.65;;;21.00;74.90;;;;;;5154128;27;20053;-85
2021/06/07 09:51:53;;;;;;;5.93;2.78;;;21.10;75.40;;;;;;5152960;27;20043;-86
2021/06/07 09:54:18;;;;;;;5.05;2.40;;;21.20;73.50;;;;;;5158735;27;20133;-85
2021/06/07 09:56:55;;;;;;;5.70;2.70;;;21.20;74.20;;;;;;5168712;27;20514;-85
2021/06/07 09:59:46;;;;;;;6.28;2.63;;;21.30;71.00;;;;;;5174704;27;20102;-85
2021/06/07 10:02:18;;;;;;;6.07;2.50;;;21.30;69.90;;;;;;5163846;27;20046;-86
2021/06/07 10:04:58;;;;;;;5.95;2.95;;;21.40;73.90;;;;;;5151093;27;20509;-87
2021/06/07 10:07:25;;;;;;;5.43;2.60;;;21.50;74.70;;;;;;5159382;27;20049;-86
2021/06/07 10:10:21;;;;;;;7.47;2.40;;;21.60;74.70;;;;;;5166298;27;20042;-87
2021/06/07 10:12:48;;;;;;;7.70;2.60;;;21.70;73.80;;;;;;5167542;27;20121;-86
2021/06/07 10:15:41;;;;;;;6.70;2.45;;;21.80;73.60;;;;;;5162979;27;20046;-87
2021/06/07 10:18:10;;;;;;;6.00;2.67;;;21.90;73.10;;;;;;5171134;27;20125;-88
2021/06/07 10:20:52;;;;;;;5.18;2.25;;;21.90;74.80;;;;;;5174325;27;20054;-86
2021/06/07 10:23:26;;;;;;;7.10;2.20;;;22.10;75.90;;;;;;5153332;27;20088;-86
2021/06/07 10:25:54;;;;;;;6.78;2.33;;;22.20;74.10;;;;;;5150807;27;20049;-86
2021/06/07 10:28:27;;;;;;;6.55;2.10;;;22.30;74.00;;;;;;5155112;27;20490;-86
2021/06/07 10:30:55;;;;;;;;;;;22.40;74.20;;;;;;5154169;27;20125;-86
2021/06/07 10:33:30;;;;;;;4.72;1.98;;;22.40;70.80;;;;;;5153027;27;20328;-87
2021/06/07 10:35:57;;;;;;;5.50;2.03;;;22.40;70.50;;;;;;5154244;27;20039;-88
2021/06/07 10:38:32;;;;;;;7.72;2.00;;;22.40;70.10;;;;;;5157164;27;20393;-87
2021/06/07 10:41:27;;;;;;;6.85;1.80;;;22.50;65.90;;;;;;5162663;27;20047;-87
2021/06/07 10:43:55;;;;;;;4.40;1.48;;;22.60;69.50;;;;;;5161535;27;20053;-86
2021/06/07 10:46:26;;;;;;;3.55;1.55;;;22.60;65.90;;;;;;5163989;27;20042;-85
2021/06/07 10:48:53;;;;;;;4.90;1.42;;;22.70;67.90;;;;;;5161950;27;20035;-86
2021/06/07 10:51:25;;;;;;;5.13;1.35;;;22.70;64.90;;;;;;5154275;27;20062;-87
2021/06/07 10:53:53;;;;;;;3.20;1.35;;;22.70;63.20;;;;;;5153044;27;20387;-87
2021/06/07 10:56:25;;;;;;;4.15;1.60;;;22.70;64.50;;;;;;5154222;27;20047;-90
2021/06/07 10:58:56;;;;;;;3.72;1.30;;;22.70;64.80;;;;;;5168458;27;20504;-88
2021/06/07 11:01:22;;;;;;;6.63;1.73;;;22.80;63.00;;;;;;5164552;27;20046;-92
2021/06/07 11:03:59;;;;;;;4.18;1.67;;;22.80;62.20;;;;;;5157596;27;20125;-92
2021/06/07 11:06:27;;;;;;;5.75;1.33;;;22.80;66.40;;;;;;5173928;27;20050;-89
2021/06/07 11:09:07;;;;;;;3.83;1.38;;;22.80;65.00;;;;;;5156946;27;20047;-91
2021/06/07 11:11:47;;;;;;;4.45;1.40;;;22.90;68.40;;;;;;5168061;27;20057;-89
2021/06/07 11:14:15;;;;;;;4.32;1.65;;;23.00;69.10;;;;;;5162310;27;20046;-89
2021/06/07 11:16:43;;;;;;;3.38;1.52;;;23.20;70.50;;;;;;5156694;27;20118;-89
2021/06/07 11:19:17;;;;;;;5.93;1.60;;;23.30;71.20;;;;;;5162623;27;20043;-92
2021/06/07 11:22:02;;;;;;;3.63;1.50;;;23.40;67.70;;;;;;5156844;27;20053;-89
2021/06/07 11:24:32;;;;;;;3.90;1.75;;;23.40;67.30;;;;;;5157516;27;20520;-89
2021/06/07 11:27:00;;;;;;;2.90;1.30;;;23.50;64.90;;;;;;5157189;27;20435;-88
2021/06/07 11:29:26;;;;;;;4.70;1.60;;;23.50;65.60;;;;;;5138197;27;20122;-89
2021/06/07 11:32:11;;;;;;;3.25;1.50;;;23.50;68.40;;;;;;5156761;27;20038;-90
2021/06/07 11:34:47;;;;;;;4.53;1.50;;;23.60;69.70;;;;;;5137376;27;20067;-89
2021/06/07 11:37:17;;;;;;;3.33;1.60;;;23.70;67.60;;;;;;5159874;27;20519;-94
2021/06/07 11:39:43;;;;;;;3.83;1.35;;;23.80;65.50;;;;;;5166213;27;20042;-89
2021/06/07 11:42:11;;;;;;;4.53;1.40;;;23.80;68.10;;;;;;5177614;27;20138;-90
2021/06/07 11:44:45;;;;;;;4.32;1.55;;;23.90;64.10;;;;;;5167831;27;20485;-89
2021/06/07 11:47:23;;;;;;;4.60;1.58;;;24.00;64.70;;;;;;5159430;27;20065;-88
2021/06/07 11:49:57;;;;;;;4.00;1.50;;;24.10;65.70;;;;;;5167931;27;20134;-90
2021/06/07 11:52:32;;;;;;;2.75;1.20;;;24.20;64.40;;;;;;5159313;27;20401;-92
2021/06/07 11:55:15;;;;;;;5.07;1.65;;;24.20;62.40;;;;;;5177587;27;20122;-90
2021/06/07 11:57:41;;;;;;;3.60;1.40;;;24.10;62.90;;;;;;5173474;27;20410;-89
2021/06/07 12:00:08;;;;;;;3.65;1.27;;;24.10;65.70;;;;;;5164908;27;20043;-91
2021/06/07 12:02:34;;;;;;;4.72;1.42;;;24.10;66.00;;;;;;5167869;27;20098;-88
2021/06/07 12:05:09;;;;;;;4.25;1.23;;;24.20;63.40;;;;;;5163719;27;20042;-89
2021/06/07 12:07:36;;;;;;;4.30;1.40;;;24.20;61.90;;;;;;5141531;27;20073;-88
2021/06/07 12:10:05;;;;;;;5.72;1.40;;;24.30;66.40;;;;;;5155291;27;20046;-88
2021/06/07 12:12:37;;;;;;;4.68;1.30;;;24.40;66.20;;;;;;5156020;27;20046;-91
2021/06/07 12:15:13;;;;;;;4.07;1.10;;;24.40;66.60;;;;;;5155484;27;20057;-90
2021/06/07 12:17:48;;;;;;;2.45;1.00;;;24.50;61.50;;;;;;5156590;27;20096;-88
2021/06/07 12:20:19;;;;;;;3.00;1.05;;;24.50;62.60;;;;;;5171165;27;20045;-90
2021/06/07 12:22:50;;;;;;;4.68;1.45;;;24.50;64.10;;;;;;5174743;27;20438;-90
2021/06/07 12:28:21;;;;;;;3.08;1.20;;;24.50;64.80;;;;;;5153845;27;20042;-89
2021/06/07 12:30:52;;;;;;;2.10;0.88;;;24.60;62.90;;;;;;5171936;27;20054;-90
2021/06/07 12:33:34;;;;;;;2.50;0.93;;;24.60;59.50;;;;;;5176352;27;20043;-90
2021/06/07 12:36:02;;;;;;;1.98;0.85;;;24.50;56.40;;;;;;5176747;27;20553;-88
2021/06/07 12:38:28;;;;;;;2.95;1.00;;;24.50;61.20;;;;;;5176900;27;20048;-91
2021/06/07 12:40:56;;;;;;;3.47;1.10;;;24.50;62.10;;;;;;5176354;27;20053;-91
2021/06/07 12:43:29;;;;;;;3.58;1.23;;;24.50;61.00;;;;;;5169080;27;20087;-89
2021/06/07 12:46:00;;;;;;;3.00;1.30;;;24.40;58.10;;;;;;5155685;27;20047;-91
2021/06/07 12:48:31;;;;;;;3.40;1.00;;;24.30;60.00;;;;;;5161264;27;20057;-91
2021/06/07 12:51:05;;;;;;;2.97;0.98;;;24.20;60.70;;;;;;5173616;27;20068;-91
2021/06/07 12:53:38;;;;;;;3.70;1.10;;;24.30;60.70;;;;;;5175811;27;20058;-89
2021/06/07 12:56:25;;;;;;;2.30;0.90;;;24.40;63.30;;;;;;5160435;27;20043;-90
2021/06/07 12:58:52;;;;;;;3.40;1.20;;;24.40;56.90;;;;;;5155619;27;20047;-89